sensor_id;sensor_type;location;lat;lon;timestamp;pressure;altitude;pressure_sealevel;temperature;humidity
18918;BME280;9591;52.742;13.650;2023-02-25T00:02:10;98827.78;;;6.37;100.00
18918;BME280;9591;52.742;13.650;2023-02-25T00:05:00;98833.59;;;6.24;100.00
18918;BME280;9591;52.742;13.650;2023-02-25T00:07:49;98825.38;;;6.32;100.00
18918;BME280;9591;52.742;13.650;2023-02-25T00:10:36;98826.56;;;6.25;100.00
18918;BME280;9591;52.742;13.650;2023-02-25T00:13:22;98829.19;;;6.25;100.00
18918;BME280;9591;52.742;13.650;2023-02-25T00:16:10;98819.09;;;6.16;100.00
18918;BME280;9591;52.742;13.650;2023-02-25T00:18:57;98772.56;;;5.79;100.00
18918;BME280;9591;52.742;13.650;2023-02-25T00:21:45;98822.91;;;6.09;100.00
18918;BME280;9591;52.742;13.650;2023-02-25T00:24:32;98825.91;;;6.01;100.00
18918;BME280;9591;52.742;13.650;2023-02-25T00:27:19;98812.81;;;6.00;100.00
18918;BME280;9591;52.742;13.650;2023-02-25T00:30:06;98813.28;;;5.89;100.00
18918;BME280;9591;52.742;13.650;2023-02-25T00:32:55;98806.00;;;5.96;100.00
18918;BME280;9591;52.742;13.650;2023-02-25T00:35:41;98812.41;;;5.88;100.00
18918;BME280;9591;52.742;13.650;2023-02-25T00:38:29;98807.84;;;5.94;100.00
18918;BME280;9591;52.742;13.650;2023-02-25T00:41:18;98810.34;;;5.97;100.00
18918;BME280;9591;52.742;13.650;2023-02-25T00:44:05;98814.47;;;6.02;100.00
18918;BME280;9591;52.742;13.650;2023-02-25T00:46:52;98806.00;;;5.96;100.00
18918;BME280;9591;52.742;13.650;2023-02-25T00:49:39;98809.47;;;5.96;100.00
18918;BME280;9591;52.742;13.650;2023-02-25T00:52:26;98807.22;;;5.87;100.00
18918;BME280;9591;52.742;13.650;2023-02-25T00:55:14;98803.63;;;5.89;100.00
18918;BME280;9591;52.742;13.650;2023-02-25T00:58:01;98800.38;;;5.83;100.00
18918;BME280;9591;52.742;13.650;2023-02-25T01:00:48;98802.59;;;5.94;100.00
18918;BME280;9591;52.742;13.650;2023-02-25T01:03:36;98797.19;;;5.97;100.00
18918;BME280;9591;52.742;13.650;2023-02-25T01:06:24;98791.09;;;5.96;100.00
18918;BME280;9591;52.742;13.650;2023-02-25T01:09:11;98789.53;;;5.92;100.00
18918;BME280;9591;52.742;13.650;2023-02-25T01:12:00;98792.94;;;5.94;100.00
18918;BME280;9591;52.742;13.650;2023-02-25T01:14:48;98796.28;;;5.98;100.00
18918;BME280;9591;52.742;13.650;2023-02-25T01:17:35;98790.94;;;5.99;100.00
18918;BME280;9591;52.742;13.650;2023-02-25T01:20:22;98781.88;;;5.86;100.00
18918;BME280;9591;52.742;13.650;2023-02-25T01:23:09;98788.69;;;5.70;100.00
18918;BME280;9591;52.742;13.650;2023-02-25T01:25:55;98780.09;;;5.66;100.00
18918;BME280;9591;52.742;13.650;2023-02-25T01:28:43;98791.25;;;5.71;100.00
18918;BME280;9591;52.742;13.650;2023-02-25T01:31:30;98786.59;;;5.78;100.00
18918;BME280;9591;52.742;13.650;2023-02-25T01:34:18;98786.28;;;5.65;100.00
18918;BME280;9591;52.742;13.650;2023-02-25T01:37:05;98779.00;;;5.72;100.00
18918;BME280;9591;52.742;13.650;2023-02-25T01:39:56;98780.50;;;5.77;100.00
18918;BME280;9591;52.742;13.650;2023-02-25T01:42:43;98771.03;;;5.73;100.00
18918;BME280;9591;52.742;13.650;2023-02-25T01:45:31;98774.31;;;5.78;100.00
18918;BME280;9591;52.742;13.650;2023-02-25T01:48:21;98776.28;;;5.73;100.00
18918;BME280;9591;52.742;13.650;2023-02-25T01:51:09;98776.09;;;5.78;100.00
18918;BME280;9591;52.742;13.650;2023-02-25T01:53:59;98769.28;;;5.74;100.00
18918;BME280;9591;52.742;13.650;2023-02-25T01:56:49;98750.44;;;5.44;100.00
18918;BME280;9591;52.742;13.650;2023-02-25T01:59:39;98778.19;;;5.70;100.00
18918;BME280;9591;52.742;13.650;2023-02-25T02:02:29;98777.28;;;5.71;100.00
18918;BME280;9591;52.742;13.650;2023-02-25T02:05:26;98767.44;;;5.76;100.00
18918;BME280;9591;52.742;13.650;2023-02-25T02:08:23;98776.69;;;5.84;100.00
18918;BME280;9591;52.742;13.650;2023-02-25T02:11:12;98780.63;;;5.74;100.00
18918;BME280;9591;52.742;13.650;2023-02-25T02:14:02;98788.44;;;5.55;100.00
18918;BME280;9591;52.742;13.650;2023-02-25T02:17:02;98781.28;;;5.79;100.00
18918;BME280;9591;52.742;13.650;2023-02-25T02:20:04;98785.09;;;5.52;100.00
18918;BME280;9591;52.742;13.650;2023-02-25T02:23:16;98776.41;;;5.50;100.00
18918;BME280;9591;52.742;13.650;2023-02-25T02:33:01;98778.53;;;5.62;100.00
18918;BME280;9591;52.742;13.650;2023-02-25T02:35:58;98785.81;;;5.55;100.00
18918;BME280;9591;52.742;13.650;2023-02-25T02:38:51;98785.34;;;5.66;100.00
18918;BME280;9591;52.742;13.650;2023-02-25T02:41:44;98783.97;;;5.78;100.00
18918;BME280;9591;52.742;13.650;2023-02-25T02:44:36;98789.56;;;5.70;100.00
18918;BME280;9591;52.742;13.650;2023-02-25T02:47:29;98783.19;;;5.76;100.00
18918;BME280;9591;52.742;13.650;2023-02-25T02:50:27;98777.28;;;5.71;100.00
18918;BME280;9591;52.742;13.650;2023-02-25T02:53:19;98788.56;;;5.73;100.00
18918;BME280;9591;52.742;13.650;2023-02-25T02:56:12;98784.75;;;5.80;100.00
18918;BME280;9591;52.742;13.650;2023-02-25T02:59:03;98793.31;;;5.65;100.00
18918;BME280;9591;52.742;13.650;2023-02-25T03:01:55;98793.88;;;5.51;100.00
18918;BME280;9591;52.742;13.650;2023-02-25T03:04:47;98799.13;;;5.51;100.00
18918;BME280;9591;52.742;13.650;2023-02-25T03:07:41;98805.72;;;5.61;100.00
18918;BME280;9591;52.742;13.650;2023-02-25T03:10:28;98814.16;;;5.47;100.00
18918;BME280;9591;52.742;13.650;2023-02-25T03:13:15;98826.69;;;5.41;100.00
18918;BME280;9591;52.742;13.650;2023-02-25T03:16:05;98824.47;;;5.52;100.00
18918;BME280;9591;52.742;13.650;2023-02-25T03:18:56;98833.28;;;5.51;100.00
18918;BME280;9591;52.742;13.650;2023-02-25T03:21:48;98835.69;;;5.55;100.00
18918;BME280;9591;52.742;13.650;2023-02-25T03:24:41;98845.03;;;5.63;100.00
18918;BME280;9591;52.742;13.650;2023-02-25T03:27:32;98845.03;;;5.63;100.00
18918;BME280;9591;52.742;13.650;2023-02-25T03:30:28;98846.53;;;5.48;100.00
18918;BME280;9591;52.742;13.650;2023-02-25T03:33:22;98857.88;;;5.48;100.00
18918;BME280;9591;52.742;13.650;2023-02-25T03:36:12;98866.28;;;5.56;100.00
18918;BME280;9591;52.742;13.650;2023-02-25T03:39:06;98861.72;;;5.40;100.00
18918;BME280;9591;52.742;13.650;2023-02-25T03:41:59;98856.41;;;5.41;100.00
18918;BME280;9591;52.742;13.650;2023-02-25T03:44:51;98874.59;;;5.46;100.00
18918;BME280;9591;52.742;13.650;2023-02-25T03:47:40;98871.72;;;5.52;100.00
18918;BME280;9591;52.742;13.650;2023-02-25T03:50:30;98880.97;;;5.40;100.00
18918;BME280;9591;52.742;13.650;2023-02-25T03:53:22;98879.31;;;5.59;100.00
18918;BME280;9591;52.742;13.650;2023-02-25T03:56:16;98872.03;;;5.44;100.00
18918;BME280;9591;52.742;13.650;2023-02-25T03:59:04;98883.56;;;5.62;100.00
18918;BME280;9591;52.742;13.650;2023-02-25T04:01:52;98891.56;;;5.59;100.00
18918;BME280;9591;52.742;13.650;2023-02-25T04:04:40;98891.38;;;5.64;100.00
18918;BME280;9591;52.742;13.650;2023-02-25T04:07:27;98890.00;;;5.55;100.00
18918;BME280;9591;52.742;13.650;2023-02-25T04:10:15;98901.44;;;5.74;100.00
18918;BME280;9591;52.742;13.650;2023-02-25T04:13:02;98902.88;;;5.61;100.00
18918;BME280;9591;52.742;13.650;2023-02-25T04:15:51;98902.56;;;5.90;100.00
18918;BME280;9591;52.742;13.650;2023-02-25T04:18:39;98901.72;;;5.88;100.00
18918;BME280;9591;52.742;13.650;2023-02-25T04:21:27;98908.78;;;5.66;100.00
18918;BME280;9591;52.742;13.650;2023-02-25T04:24:15;98927.44;;;5.60;100.00
18918;BME280;9591;52.742;13.650;2023-02-25T04:27:02;98918.94;;;5.53;100.00
18918;BME280;9591;52.742;13.650;2023-02-25T04:29:48;98926.81;;;5.32;100.00
18918;BME280;9591;52.742;13.650;2023-02-25T04:32:36;98933.97;;;5.50;100.00
18918;BME280;9591;52.742;13.650;2023-02-25T04:35:23;98936.81;;;5.44;100.00
18918;BME280;9591;52.742;13.650;2023-02-25T04:38:10;98942.56;;;5.32;100.00
18918;BME280;9591;52.742;13.650;2023-02-25T04:40:56;98935.78;;;5.48;100.00
18918;BME280;9591;52.742;13.650;2023-02-25T04:43:43;98942.31;;;5.38;100.00
18918;BME280;9591;52.742;13.650;2023-02-25T04:46:31;98918.88;;;5.11;100.00
18918;BME280;9591;52.742;13.650;2023-02-25T04:49:21;98957.16;;;5.17;100.00
18918;BME280;9591;52.742;13.650;2023-02-25T04:52:07;98952.13;;;5.33;100.00
18918;BME280;9591;52.742;13.650;2023-02-25T04:54:54;98955.06;;;5.25;100.00
18918;BME280;9591;52.742;13.650;2023-02-25T04:57:41;98947.50;;;5.17;100.00
18918;BME280;9591;52.742;13.650;2023-02-25T05:00:28;98958.53;;;5.25;100.00
18918;BME280;9591;52.742;13.650;2023-02-25T05:03:14;98962.53;;;5.14;100.00
18918;BME280;9591;52.742;13.650;2023-02-25T05:06:04;98963.91;;;5.22;100.00
18918;BME280;9591;52.742;13.650;2023-02-25T05:08:51;98968.56;;;5.16;100.00
18918;BME280;9591;52.742;13.650;2023-02-25T05:11:38;98968.63;;;5.14;100.00
18918;BME280;9591;52.742;13.650;2023-02-25T05:14:24;98964.13;;;5.18;100.00
18918;BME280;9591;52.742;13.650;2023-02-25T05:17:11;98976.84;;;5.05;100.00
18918;BME280;9591;52.742;13.650;2023-02-25T05:19:59;98966.75;;;5.18;100.00
18918;BME280;9591;52.742;13.650;2023-02-25T05:22:48;98979.72;;;5.21;100.00
18918;BME280;9591;52.742;13.650;2023-02-25T05:25:35;98980.72;;;5.18;100.00
18918;BME280;9591;52.742;13.650;2023-02-25T05:28:25;98982.66;;;5.13;100.00
18918;BME280;9591;52.742;13.650;2023-02-25T05:31:12;98979.34;;;5.08;100.00
18918;BME280;9591;52.742;13.650;2023-02-25T05:33:59;98988.25;;;5.04;100.00
18918;BME280;9591;52.742;13.650;2023-02-25T05:36:45;98976.56;;;4.89;100.00
18918;BME280;9591;52.742;13.650;2023-02-25T05:39:34;98998.00;;;5.01;100.00
18918;BME280;9591;52.742;13.650;2023-02-25T05:42:20;99000.22;;;4.88;100.00
18918;BME280;9591;52.742;13.650;2023-02-25T05:45:08;99006.50;;;5.07;100.00
18918;BME280;9591;52.742;13.650;2023-02-25T05:47:55;99011.03;;;4.79;100.00
18918;BME280;9591;52.742;13.650;2023-02-25T05:50:42;99026.41;;;4.89;100.00
18918;BME280;9591;52.742;13.650;2023-02-25T05:53:29;99011.41;;;4.68;100.00
18918;BME280;9591;52.742;13.650;2023-02-25T05:56:19;99045.97;;;5.04;100.00
18918;BME280;9591;52.742;13.650;2023-02-25T05:59:07;99055.91;;;5.19;100.00
18918;BME280;9591;52.742;13.650;2023-02-25T06:01:53;99056.63;;;5.00;100.00
18918;BME280;9591;52.742;13.650;2023-02-25T06:04:40;99054.81;;;5.02;100.00
18918;BME280;9591;52.742;13.650;2023-02-25T06:07:28;99058.03;;;4.85;100.00
18918;BME280;9591;52.742;13.650;2023-02-25T06:10:15;99068.53;;;4.85;100.00
18918;BME280;9591;52.742;13.650;2023-02-25T06:13:03;99003.22;;;4.52;100.00
18918;BME280;9591;52.742;13.650;2023-02-25T06:15:50;99080.66;;;5.12;100.00
18918;BME280;9591;52.742;13.650;2023-02-25T06:18:38;99092.94;;;5.12;100.00
18918;BME280;9591;52.742;13.650;2023-02-25T06:21:25;99099.09;;;5.11;100.00
18918;BME280;9591;52.742;13.650;2023-02-25T06:24:12;99101.03;;;5.06;100.00
18918;BME280;9591;52.742;13.650;2023-02-25T06:27:00;99107.41;;;4.99;100.00
18918;BME280;9591;52.742;13.650;2023-02-25T06:29:48;99109.84;;;5.03;100.00
18918;BME280;9591;52.742;13.650;2023-02-25T06:32:35;99111.72;;;5.00;100.00
18918;BME280;9591;52.742;13.650;2023-02-25T06:35:22;99083.94;;;4.69;100.00
18918;BME280;9591;52.742;13.650;2023-02-25T06:38:09;99126.66;;;4.98;100.00
18918;BME280;9591;52.742;13.650;2023-02-25T06:40:55;99129.06;;;4.79;100.00
18918;BME280;9591;52.742;13.650;2023-02-25T06:43:42;99136.72;;;4.85;100.00
18918;BME280;9591;52.742;13.650;2023-02-25T06:46:31;99153.06;;;4.93;100.00
18918;BME280;9591;52.742;13.650;2023-02-25T06:49:17;99152.25;;;4.91;100.00
18918;BME280;9591;52.742;13.650;2023-02-25T06:52:04;99149.09;;;4.81;100.00
18918;BME280;9591;52.742;13.650;2023-02-25T06:54:51;99159.28;;;4.90;100.00
18918;BME280;9591;52.742;13.650;2023-02-25T06:57:38;99163.97;;;4.81;100.00
18918;BME280;9591;52.742;13.650;2023-02-25T07:00:25;99169.13;;;4.84;100.00
18918;BME280;9591;52.742;13.650;2023-02-25T07:03:13;99171.19;;;4.74;100.00
18918;BME280;9591;52.742;13.650;2023-02-25T07:06:01;99128.56;;;4.41;100.00
18918;BME280;9591;52.742;13.650;2023-02-25T07:08:48;99181.38;;;4.83;100.00
18918;BME280;9591;52.742;13.650;2023-02-25T07:11:34;99184.41;;;4.71;100.00
18918;BME280;9591;52.742;13.650;2023-02-25T07:14:21;99198.56;;;4.66;100.00
18918;BME280;9591;52.742;13.650;2023-02-25T07:17:08;99199.75;;;4.55;100.00
18918;BME280;9591;52.742;13.650;2023-02-25T07:19:56;99195.66;;;4.75;100.00
18918;BME280;9591;52.742;13.650;2023-02-25T07:22:43;99205.28;;;4.74;100.00
18918;BME280;9591;52.742;13.650;2023-02-25T07:25:30;99188.81;;;4.43;100.00
18918;BME280;9591;52.742;13.650;2023-02-25T07:28:17;99211.81;;;4.61;100.00
18918;BME280;9591;52.742;13.650;2023-02-25T07:31:08;99224.84;;;4.64;100.00
18918;BME280;9591;52.742;13.650;2023-02-25T07:33:57;99230.84;;;4.68;100.00
18918;BME280;9591;52.742;13.650;2023-02-25T07:36:48;99238.72;;;4.94;100.00
18918;BME280;9591;52.742;13.650;2023-02-25T07:39:35;99239.03;;;4.85;100.00
18918;BME280;9591;52.742;13.650;2023-02-25T07:42:22;99245.38;;;4.78;100.00
18918;BME280;9591;52.742;13.650;2023-02-25T07:45:15;99227.03;;;4.50;100.00
18918;BME280;9591;52.742;13.650;2023-02-25T07:48:01;99250.56;;;4.79;100.00
18918;BME280;9591;52.742;13.650;2023-02-25T07:50:48;99267.06;;;4.83;100.00
18918;BME280;9591;52.742;13.650;2023-02-25T07:53:36;99283.34;;;4.94;100.00
18918;BME280;9591;52.742;13.650;2023-02-25T07:56:25;99279.59;;;5.01;100.00
18918;BME280;9591;52.742;13.650;2023-02-25T07:59:12;99288.75;;;5.16;100.00
18918;BME280;9591;52.742;13.650;2023-02-25T08:01:59;99283.31;;;5.20;100.00
18918;BME280;9591;52.742;13.650;2023-02-25T08:04:46;99288.75;;;5.16;100.00
18918;BME280;9591;52.742;13.650;2023-02-25T08:07:33;99294.41;;;5.28;100.00
18918;BME280;9591;52.742;13.650;2023-02-25T08:10:21;99297.56;;;5.13;100.00
18918;BME280;9591;52.742;13.650;2023-02-25T08:13:08;99299.41;;;5.11;100.00
18918;BME280;9591;52.742;13.650;2023-02-25T08:15:54;99301.34;;;5.31;100.00
18918;BME280;9591;52.742;13.650;2023-02-25T08:18:42;99306.16;;;5.18;100.00
18918;BME280;9591;52.742;13.650;2023-02-25T08:21:28;99312.19;;;5.20;100.00
18918;BME280;9591;52.742;13.650;2023-02-25T08:24:15;99317.44;;;5.20;100.00
18918;BME280;9591;52.742;13.650;2023-02-25T08:27:06;99319.53;;;5.11;100.00
18918;BME280;9591;52.742;13.650;2023-02-25T08:29:54;99327.31;;;5.14;100.00
18918;BME280;9591;52.742;13.650;2023-02-25T08:32:41;99330.50;;;5.22;100.00
18918;BME280;9591;52.742;13.650;2023-02-25T08:35:28;99335.94;;;5.17;100.00
18918;BME280;9591;52.742;13.650;2023-02-25T08:38:15;99337.53;;;5.21;100.00
18918;BME280;9591;52.742;13.650;2023-02-25T08:41:03;99353.88;;;5.03;100.00
18918;BME280;9591;52.742;13.650;2023-02-25T08:43:53;99352.84;;;5.09;100.00
18918;BME280;9591;52.742;13.650;2023-02-25T08:46:39;99358.91;;;5.11;100.00
18918;BME280;9591;52.742;13.650;2023-02-25T08:49:26;99359.28;;;5.25;100.00
18918;BME280;9591;52.742;13.650;2023-02-25T08:52:13;99348.16;;;5.18;100.00
18918;BME280;9591;52.742;13.650;2023-02-25T08:55:00;99356.13;;;5.15;100.00
18918;BME280;9591;52.742;13.650;2023-02-25T08:57:47;99366.81;;;5.36;100.00
18918;BME280;9591;52.742;13.650;2023-02-25T09:00:36;99381.03;;;5.28;100.00
18918;BME280;9591;52.742;13.650;2023-02-25T09:03:23;99380.56;;;5.44;100.00
18918;BME280;9591;52.742;13.650;2023-02-25T09:06:10;99391.19;;;5.39;100.00
18918;BME280;9591;52.742;13.650;2023-02-25T09:08:57;99392.88;;;5.42;100.00
18918;BME280;9591;52.742;13.650;2023-02-25T09:11:45;99401.50;;;5.45;100.00
18918;BME280;9591;52.742;13.650;2023-02-25T09:14:32;99403.47;;;5.39;100.00
18918;BME280;9591;52.742;13.650;2023-02-25T09:17:20;99408.34;;;5.51;100.00
18918;BME280;9591;52.742;13.650;2023-02-25T09:20:08;99417.16;;;5.48;100.00
18918;BME280;9591;52.742;13.650;2023-02-25T09:22:56;99424.66;;;5.33;100.00
18918;BME280;9591;52.742;13.650;2023-02-25T09:25:43;99430.72;;;5.35;100.00
18918;BME280;9591;52.742;13.650;2023-02-25T09:28:30;99432.34;;;5.39;100.00
18918;BME280;9591;52.742;13.650;2023-02-25T09:31:17;99439.84;;;5.51;100.00
18918;BME280;9591;52.742;13.650;2023-02-25T09:34:07;99440.22;;;5.39;100.00
18918;BME280;9591;52.742;13.650;2023-02-25T09:36:57;99447.19;;;5.40;100.00
18918;BME280;9591;52.742;13.650;2023-02-25T09:39:44;99447.72;;;5.51;100.00
18918;BME280;9591;52.742;13.650;2023-02-25T09:42:45;99394.59;;;5.16;100.00
18918;BME280;9591;52.742;13.650;2023-02-25T09:45:36;99457.88;;;5.62;100.00
18918;BME280;9591;52.742;13.650;2023-02-25T09:48:25;99454.25;;;5.38;100.00
18918;BME280;9591;52.742;13.650;2023-02-25T09:51:19;99472.34;;;5.47;100.00
18918;BME280;9591;52.742;13.650;2023-02-25T09:54:16;99483.09;;;5.39;100.00
18918;BME280;9591;52.742;13.650;2023-02-25T09:57:05;99481.34;;;5.68;100.00
18918;BME280;9591;52.742;13.650;2023-02-25T09:59:52;99496.19;;;5.41;100.00
18918;BME280;9591;52.742;13.650;2023-02-25T10:02:45;99485.59;;;5.44;100.00
18918;BME280;9591;52.742;13.650;2023-02-25T10:05:40;99504.00;;;5.42;100.00
18918;BME280;9591;52.742;13.650;2023-02-25T10:08:33;99501.16;;;5.20;100.00
18918;BME280;9591;52.742;13.650;2023-02-25T10:11:31;99515.28;;;5.46;100.00
18918;BME280;9591;52.742;13.650;2023-02-25T10:14:42;99517.25;;;5.67;100.00
18918;BME280;9591;52.742;13.650;2023-02-25T10:17:36;99525.47;;;5.56;100.00
18918;BME280;9591;52.742;13.650;2023-02-25T10:20:51;99533.72;;;5.44;100.00
18918;BME280;9591;52.742;13.650;2023-02-25T10:23:52;99546.03;;;5.42;100.00
18918;BME280;9591;52.742;13.650;2023-02-25T10:26:48;99539.16;;;5.38;100.00
18918;BME280;9591;52.742;13.650;2023-02-25T10:29:38;99562.91;;;5.34;100.00
18918;BME280;9591;52.742;13.650;2023-02-25T10:32:29;99542.84;;;5.31;100.00
18918;BME280;9591;52.742;13.650;2023-02-25T10:35:19;99559.13;;;5.72;100.00
18918;BME280;9591;52.742;13.650;2023-02-25T10:38:08;99566.34;;;5.95;100.00
18918;BME280;9591;52.742;13.650;2023-02-25T10:40:57;99554.56;;;6.06;100.00
18918;BME280;9591;52.742;13.650;2023-02-25T10:43:44;99564.75;;;5.89;100.00
18918;BME280;9591;52.742;13.650;2023-02-25T10:46:34;99524.34;;;6.44;100.00
18918;BME280;9591;52.742;13.650;2023-02-25T10:49:26;99564.50;;;6.99;100.00
18918;BME280;9591;52.742;13.650;2023-02-25T10:52:16;99575.38;;;6.90;100.00
18918;BME280;9591;52.742;13.650;2023-02-25T10:55:03;99583.09;;;6.70;100.00
18918;BME280;9591;52.742;13.650;2023-02-25T10:57:51;99585.69;;;6.18;100.00
18918;BME280;9591;52.742;13.650;2023-02-25T11:00:39;99579.00;;;6.08;100.00
18918;BME280;9591;52.742;13.650;2023-02-25T11:03:31;99601.81;;;5.50;100.00
18918;BME280;9591;52.742;13.650;2023-02-25T11:06:23;99595.25;;;5.65;100.00
18918;BME280;9591;52.742;13.650;2023-02-25T11:09:27;99601.88;;;6.06;100.00
18918;BME280;9591;52.742;13.650;2023-02-25T11:12:16;99601.84;;;6.61;100.00
18918;BME280;9591;52.742;13.650;2023-02-25T11:15:25;99605.50;;;7.30;100.00
18918;BME280;9591;52.742;13.650;2023-02-25T11:18:29;99607.91;;;7.12;100.00
18918;BME280;9591;52.742;13.650;2023-02-25T11:21:27;99591.06;;;6.42;100.00
18918;BME280;9591;52.742;13.650;2023-02-25T11:24:16;99610.81;;;6.27;100.00
18918;BME280;9591;52.742;13.650;2023-02-25T11:27:06;99627.03;;;5.85;100.00
18918;BME280;9591;52.742;13.650;2023-02-25T11:30:00;99626.41;;;6.33;100.00
18918;BME280;9591;52.742;13.650;2023-02-25T11:32:51;99625.91;;;6.48;100.00
18918;BME280;9591;52.742;13.650;2023-02-25T11:35:40;99626.94;;;6.44;100.00
18918;BME280;9591;52.742;13.650;2023-02-25T11:38:28;99635.84;;;6.67;100.00
18918;BME280;9591;52.742;13.650;2023-02-25T11:41:20;99636.19;;;6.82;100.00
18918;BME280;9591;52.742;13.650;2023-02-25T11:44:16;99642.75;;;6.94;100.00
18918;BME280;9591;52.742;13.650;2023-02-25T11:47:12;99643.94;;;6.61;100.00
18918;BME280;9591;52.742;13.650;2023-02-25T11:50:14;99658.59;;;6.13;100.00
18918;BME280;9591;52.742;13.650;2023-02-25T11:53:11;99658.84;;;6.06;100.00
18918;BME280;9591;52.742;13.650;2023-02-25T11:56:06;99654.47;;;5.75;100.00
18918;BME280;9591;52.742;13.650;2023-02-25T11:59:05;99672.28;;;5.97;100.00
18918;BME280;9591;52.742;13.650;2023-02-25T12:02:15;99676.09;;;5.85;100.00
18918;BME280;9591;52.742;13.650;2023-02-25T12:05:25;99667.84;;;5.68;100.00
18918;BME280;9591;52.742;13.650;2023-02-25T12:08:43;99684.13;;;5.80;100.00
18918;BME280;9591;52.742;13.650;2023-02-25T12:12:05;99694.88;;;5.71;100.00
18918;BME280;9591;52.742;13.650;2023-02-25T12:15:21;99688.13;;;5.63;100.00
18918;BME280;9591;52.742;13.650;2023-02-25T12:18:35;99706.16;;;5.75;100.00
18918;BME280;9591;52.742;13.650;2023-02-25T12:22:00;99695.31;;;5.87;100.00
18918;BME280;9591;52.742;13.650;2023-02-25T12:25:15;99704.03;;;5.89;100.00
18918;BME280;9591;52.742;13.650;2023-02-25T12:28:32;99715.34;;;5.60;100.00
18918;BME280;9591;52.742;13.650;2023-02-25T12:35:14;99723.75;;;5.73;100.00
18918;BME280;9591;52.742;13.650;2023-02-25T12:38:35;99727.25;;;5.41;100.00
18918;BME280;9591;52.742;13.650;2023-02-25T12:41:42;99732.41;;;5.44;100.00
18918;BME280;9591;52.742;13.650;2023-02-25T12:48:39;99757.94;;;5.06;100.00
18918;BME280;9591;52.742;13.650;2023-02-25T12:51:56;99752.56;;;5.43;100.00
18918;BME280;9591;52.742;13.650;2023-02-25T12:55:09;99760.13;;;5.55;100.00
18918;BME280;9591;52.742;13.650;2023-02-25T12:58:18;99774.97;;;5.56;100.00
18918;BME280;9591;52.742;13.650;2023-02-25T13:01:21;99782.53;;;5.69;100.00
18918;BME280;9591;52.742;13.650;2023-02-25T13:04:37;99779.00;;;5.37;100.00
18918;BME280;9591;52.742;13.650;2023-02-25T13:07:37;99791.38;;;5.32;100.00
18918;BME280;9591;52.742;13.650;2023-02-25T13:10:45;99791.59;;;5.23;100.00
18918;BME280;9591;52.742;13.650;2023-02-25T13:13:59;99795.53;;;5.41;100.00
18918;BME280;9591;52.742;13.650;2023-02-25T13:17:00;99795.75;;;5.32;100.00
18918;BME280;9591;52.742;13.650;2023-02-25T13:20:04;99807.09;;;5.34;100.00
18918;BME280;9591;52.742;13.650;2023-02-25T13:23:14;99809.41;;;5.46;100.00
18918;BME280;9591;52.742;13.650;2023-02-25T13:26:19;99814.31;;;5.24;100.00
18918;BME280;9591;52.742;13.650;2023-02-25T13:29:25;99819.31;;;5.35;100.00
18918;BME280;9591;52.742;13.650;2023-02-25T13:32:25;99821.88;;;5.38;100.00
18918;BME280;9591;52.742;13.650;2023-02-25T13:35:22;99830.38;;;5.47;100.00
18918;BME280;9591;52.742;13.650;2023-02-25T13:38:22;99818.88;;;5.51;100.00
18918;BME280;9591;52.742;13.650;2023-02-25T13:41:36;99834.47;;;5.23;100.00
18918;BME280;9591;52.742;13.650;2023-02-25T13:44:37;99837.91;;;5.25;100.00
18918;BME280;9591;52.742;13.650;2023-02-25T13:47:36;99850.25;;;5.22;100.00
18918;BME280;9591;52.742;13.650;2023-02-25T13:50:43;99851.16;;;5.21;100.00
18918;BME280;9591;52.742;13.650;2023-02-25T13:53:48;99859.31;;;5.10;100.00
18918;BME280;9591;52.742;13.650;2023-02-25T13:56:54;99863.78;;;5.07;100.00
18918;BME280;9591;52.742;13.650;2023-02-25T14:00:09;99862.16;;;5.37;100.00
18918;BME280;9591;52.742;13.650;2023-02-25T14:06:42;99875.03;;;5.12;100.00
18918;BME280;9591;52.742;13.650;2023-02-25T14:09:39;99877.34;;;4.87;100.00
18918;BME280;9591;52.742;13.650;2023-02-25T14:12:42;99883.56;;;4.83;100.00
18918;BME280;9591;52.742;13.650;2023-02-25T14:15:41;99888.78;;;4.84;100.00
18918;BME280;9591;52.742;13.650;2023-02-25T14:18:44;99886.16;;;4.84;100.00
18918;BME280;9591;52.742;13.650;2023-02-25T14:21:48;99902.72;;;4.86;100.00
18918;BME280;9591;52.742;13.650;2023-02-25T14:24:43;99905.78;;;4.67;100.00
18918;BME280;9591;52.742;13.650;2023-02-25T14:27:40;99913.91;;;4.94;100.00
18918;BME280;9591;52.742;13.650;2023-02-25T14:30:37;99921.78;;;4.94;100.00
18918;BME280;9591;52.742;13.650;2023-02-25T14:33:46;99884.31;;;4.48;100.00
18918;BME280;9591;52.742;13.650;2023-02-25T14:37:00;99926.09;;;4.97;100.00
18918;BME280;9591;52.742;13.650;2023-02-25T14:40:04;99925.81;;;5.11;100.00
18918;BME280;9591;52.742;13.650;2023-02-25T14:43:25;99933.19;;;4.93;100.00
18918;BME280;9591;52.742;13.650;2023-02-25T14:46:30;99938.34;;;4.98;100.00
18918;BME280;9591;52.742;13.650;2023-02-25T14:49:20;99942.06;;;4.88;100.00
18918;BME280;9591;52.742;13.650;2023-02-25T14:52:31;99948.84;;;4.98;100.00
18918;BME280;9591;52.742;13.650;2023-02-25T14:55:50;99952.84;;;4.74;100.00
18918;BME280;9591;52.742;13.650;2023-02-25T14:58:52;99954.47;;;4.80;100.00
18918;BME280;9591;52.742;13.650;2023-02-25T15:02:05;99965.03;;;4.77;100.00
18918;BME280;9591;52.742;13.650;2023-02-25T15:05:17;99976.06;;;4.92;100.00
18918;BME280;9591;52.742;13.650;2023-02-25T15:11:47;99982.09;;;4.54;100.00
18918;BME280;9591;52.742;13.650;2023-02-25T15:15:06;99978.44;;;4.61;100.00
18918;BME280;9591;52.742;13.650;2023-02-25T15:21:39;99998.16;;;4.81;100.00
18918;BME280;9591;52.742;13.650;2023-02-25T15:24:37;100010.50;;;4.76;100.00
18918;BME280;9591;52.742;13.650;2023-02-25T15:27:46;100013.50;;;4.57;100.00
18918;BME280;9591;52.742;13.650;2023-02-25T15:34:33;100024.16;;;4.48;100.00
18918;BME280;9591;52.742;13.650;2023-02-25T15:37:29;100021.31;;;4.60;100.00
18918;BME280;9591;52.742;13.650;2023-02-25T15:40:44;100026.91;;;4.87;100.00
18918;BME280;9591;52.742;13.650;2023-02-25T15:43:42;100037.84;;;4.64;100.00
18918;BME280;9591;52.742;13.650;2023-02-25T15:46:43;100035.16;;;4.67;100.00